sensor_id;sensor_type;location;lat;lon;timestamp;P1;durP1;ratioP1;P2;durP2;ratioP2
69401;SDS011;56589;51.992;5.924;2023-01-13T00:00:12;13.32;;;2.42;;
69401;SDS011;56589;51.992;5.924;2023-01-13T00:02:40;15.05;;;2.88;;
69401;SDS011;56589;51.992;5.924;2023-01-13T00:05:06;14.73;;;1.98;;
69401;SDS011;56589;51.992;5.924;2023-01-13T00:07:32;15.73;;;2.08;;
69401;SDS011;56589;51.992;5.924;2023-01-13T00:09:58;17.05;;;2.05;;
69401;SDS011;56589;51.992;5.924;2023-01-13T00:12:26;17.40;;;2.40;;
69401;SDS011;56589;51.992;5.924;2023-01-13T00:14:52;19.05;;;2.53;;
69401;SDS011;56589;51.992;5.924;2023-01-13T00:17:18;21.45;;;3.42;;
69401;SDS011;56589;51.992;5.924;2023-01-13T00:19:44;26.88;;;2.97;;
69401;SDS011;56589;51.992;5.924;2023-01-13T00:22:09;24.27;;;3.35;;
69401;SDS011;56589;51.992;5.924;2023-01-13T00:24:35;24.40;;;3.47;;
69401;SDS011;56589;51.992;5.924;2023-01-13T00:27:01;29.33;;;3.90;;
69401;SDS011;56589;51.992;5.924;2023-01-13T00:29:29;14.00;;;2.50;;
69401;SDS011;56589;51.992;5.924;2023-01-13T00:31:55;15.65;;;2.50;;
69401;SDS011;56589;51.992;5.924;2023-01-13T00:34:21;16.08;;;2.15;;
69401;SDS011;56589;51.992;5.924;2023-01-13T00:36:47;17.42;;;2.13;;
69401;SDS011;56589;51.992;5.924;2023-01-13T00:39:12;16.02;;;2.45;;
69401;SDS011;56589;51.992;5.924;2023-01-13T00:41:38;23.75;;;2.95;;
69401;SDS011;56589;51.992;5.924;2023-01-13T00:44:04;20.83;;;3.42;;
69401;SDS011;56589;51.992;5.924;2023-01-13T00:46:32;26.85;;;3.60;;
69401;SDS011;56589;51.992;5.924;2023-01-13T00:48:58;20.65;;;2.80;;
69401;SDS011;56589;51.992;5.924;2023-01-13T00:51:24;15.93;;;3.00;;
69401;SDS011;56589;51.992;5.924;2023-01-13T00:53:50;17.75;;;3.38;;
69401;SDS011;56589;51.992;5.924;2023-01-13T00:56:17;22.15;;;2.88;;
69401;SDS011;56589;51.992;5.924;2023-01-13T00:58:45;21.40;;;3.90;;
69401;SDS011;56589;51.992;5.924;2023-01-13T01:01:12;24.17;;;2.97;;
69401;SDS011;56589;51.992;5.924;2023-01-13T01:03:45;18.42;;;3.25;;
69401;SDS011;56589;51.992;5.924;2023-01-13T01:06:12;20.80;;;3.22;;
69401;SDS011;56589;51.992;5.924;2023-01-13T01:08:41;27.70;;;3.58;;
69401;SDS011;56589;51.992;5.924;2023-01-13T01:11:09;24.98;;;3.75;;
69401;SDS011;56589;51.992;5.924;2023-01-13T01:13:37;22.00;;;3.08;;
69401;SDS011;56589;51.992;5.924;2023-01-13T01:16:05;18.15;;;3.00;;
69401;SDS011;56589;51.992;5.924;2023-01-13T01:18:34;14.48;;;3.33;;
69401;SDS011;56589;51.992;5.924;2023-01-13T01:21:05;17.73;;;2.53;;
69401;SDS011;56589;51.992;5.924;2023-01-13T01:23:32;28.27;;;2.92;;
69401;SDS011;56589;51.992;5.924;2023-01-13T01:26:00;23.80;;;3.97;;
69401;SDS011;56589;51.992;5.924;2023-01-13T01:28:27;26.55;;;3.10;;
69401;SDS011;56589;51.992;5.924;2023-01-13T01:30:53;22.60;;;3.25;;
69401;SDS011;56589;51.992;5.924;2023-01-13T01:33:19;22.88;;;2.75;;
69401;SDS011;56589;51.992;5.924;2023-01-13T01:35:45;22.33;;;3.08;;
69401;SDS011;56589;51.992;5.924;2023-01-13T01:38:13;25.58;;;3.40;;
69401;SDS011;56589;51.992;5.924;2023-01-13T01:40:39;35.47;;;4.93;;
69401;SDS011;56589;51.992;5.924;2023-01-13T01:43:08;23.15;;;3.72;;
69401;SDS011;56589;51.992;5.924;2023-01-13T01:45:39;23.35;;;3.10;;
69401;SDS011;56589;51.992;5.924;2023-01-13T01:48:05;23.58;;;3.78;;
69401;SDS011;56589;51.992;5.924;2023-01-13T01:50:33;23.42;;;2.97;;
69401;SDS011;56589;51.992;5.924;2023-01-13T01:53:01;21.15;;;4.40;;
69401;SDS011;56589;51.992;5.924;2023-01-13T01:55:45;26.65;;;4.00;;
69401;SDS011;56589;51.992;5.924;2023-01-13T01:58:12;30.27;;;3.55;;
69401;SDS011;56589;51.992;5.924;2023-01-13T02:00:43;26.38;;;4.47;;
69401;SDS011;56589;51.992;5.924;2023-01-13T02:03:09;28.65;;;2.92;;
69401;SDS011;56589;51.992;5.924;2023-01-13T02:05:40;24.63;;;3.90;;
69401;SDS011;56589;51.992;5.924;2023-01-13T02:08:06;22.35;;;4.13;;
69401;SDS011;56589;51.992;5.924;2023-01-13T02:10:35;27.67;;;4.80;;
69401;SDS011;56589;51.992;5.924;2023-01-13T02:13:07;23.42;;;3.88;;
69401;SDS011;56589;51.992;5.924;2023-01-13T02:15:37;26.92;;;3.90;;
69401;SDS011;56589;51.992;5.924;2023-01-13T02:18:26;23.00;;;3.67;;
69401;SDS011;56589;51.992;5.924;2023-01-13T02:21:19;30.17;;;3.35;;
69401;SDS011;56589;51.992;5.924;2023-01-13T02:24:28;27.17;;;3.95;;
69401;SDS011;56589;51.992;5.924;2023-01-13T02:27:35;27.02;;;3.72;;
69401;SDS011;56589;51.992;5.924;2023-01-13T02:30:25;18.80;;;2.95;;
69401;SDS011;56589;51.992;5.924;2023-01-13T02:33:18;28.33;;;3.30;;
69401;SDS011;56589;51.992;5.924;2023-01-13T02:36:03;28.23;;;3.53;;
69401;SDS011;56589;51.992;5.924;2023-01-13T02:38:41;26.98;;;3.55;;
69401;SDS011;56589;51.992;5.924;2023-01-13T02:41:17;27.90;;;3.50;;
69401;SDS011;56589;51.992;5.924;2023-01-13T02:43:53;23.98;;;2.88;;
69401;SDS011;56589;51.992;5.924;2023-01-13T02:46:30;28.77;;;3.42;;
69401;SDS011;56589;51.992;5.924;2023-01-13T02:49:05;25.92;;;4.10;;
69401;SDS011;56589;51.992;5.924;2023-01-13T02:51:36;31.63;;;3.40;;
69401;SDS011;56589;51.992;5.924;2023-01-13T02:54:07;22.95;;;3.67;;
69401;SDS011;56589;51.992;5.924;2023-01-13T02:56:39;26.45;;;3.17;;
69401;SDS011;56589;51.992;5.924;2023-01-13T02:59:12;27.83;;;4.20;;
69401;SDS011;56589;51.992;5.924;2023-01-13T03:01:41;26.83;;;3.28;;
69401;SDS011;56589;51.992;5.924;2023-01-13T03:04:10;27.55;;;4.10;;
69401;SDS011;56589;51.992;5.924;2023-01-13T03:06:39;23.85;;;3.50;;
69401;SDS011;56589;51.992;5.924;2023-01-13T03:09:16;24.25;;;4.28;;
69401;SDS011;56589;51.992;5.924;2023-01-13T03:11:54;25.65;;;3.70;;
69401;SDS011;56589;51.992;5.924;2023-01-13T03:14:35;20.00;;;3.40;;
69401;SDS011;56589;51.992;5.924;2023-01-13T03:17:15;24.13;;;4.95;;
69401;SDS011;56589;51.992;5.924;2023-01-13T03:19:53;22.20;;;3.15;;
69401;SDS011;56589;51.992;5.924;2023-01-13T03:22:30;25.13;;;3.20;;
69401;SDS011;56589;51.992;5.924;2023-01-13T03:25:02;26.13;;;4.47;;
69401;SDS011;56589;51.992;5.924;2023-01-13T03:27:39;28.52;;;4.40;;
69401;SDS011;56589;51.992;5.924;2023-01-13T03:30:16;23.40;;;4.07;;
69401;SDS011;56589;51.992;5.924;2023-01-13T03:32:51;30.40;;;3.10;;
69401;SDS011;56589;51.992;5.924;2023-01-13T03:35:26;22.80;;;4.07;;
69401;SDS011;56589;51.992;5.924;2023-01-13T03:38:01;22.63;;;3.88;;
69401;SDS011;56589;51.992;5.924;2023-01-13T03:40:34;21.08;;;3.13;;
69401;SDS011;56589;51.992;5.924;2023-01-13T03:43:09;26.55;;;3.40;;
69401;SDS011;56589;51.992;5.924;2023-01-13T03:45:43;26.33;;;3.35;;
69401;SDS011;56589;51.992;5.924;2023-01-13T03:48:19;19.67;;;3.58;;
69401;SDS011;56589;51.992;5.924;2023-01-13T03:50:54;22.27;;;3.95;;
69401;SDS011;56589;51.992;5.924;2023-01-13T03:53:29;22.25;;;4.93;;
69401;SDS011;56589;51.992;5.924;2023-01-13T03:56:04;26.10;;;3.05;;
69401;SDS011;56589;51.992;5.924;2023-01-13T03:58:36;19.88;;;3.45;;
69401;SDS011;56589;51.992;5.924;2023-01-13T04:01:10;22.52;;;3.13;;
69401;SDS011;56589;51.992;5.924;2023-01-13T04:03:48;24.42;;;3.50;;
69401;SDS011;56589;51.992;5.924;2023-01-13T04:06:22;23.35;;;3.35;;
69401;SDS011;56589;51.992;5.924;2023-01-13T04:09:02;18.75;;;3.35;;
69401;SDS011;56589;51.992;5.924;2023-01-13T04:11:38;23.48;;;3.65;;
69401;SDS011;56589;51.992;5.924;2023-01-13T04:14:13;25.30;;;3.47;;
69401;SDS011;56589;51.992;5.924;2023-01-13T04:16:45;23.27;;;4.15;;
69401;SDS011;56589;51.992;5.924;2023-01-13T04:19:15;18.60;;;2.85;;
69401;SDS011;56589;51.992;5.924;2023-01-13T04:21:41;19.13;;;3.67;;
69401;SDS011;56589;51.992;5.924;2023-01-13T04:24:07;15.43;;;3.65;;
69401;SDS011;56589;51.992;5.924;2023-01-13T04:26:33;24.25;;;3.05;;
69401;SDS011;56589;51.992;5.924;2023-01-13T04:28:59;16.13;;;3.05;;
69401;SDS011;56589;51.992;5.924;2023-01-13T04:31:25;20.83;;;2.88;;
69401;SDS011;56589;51.992;5.924;2023-01-13T04:33:50;16.90;;;3.97;;
69401;SDS011;56589;51.992;5.924;2023-01-13T04:36:19;20.23;;;3.50;;
69401;SDS011;56589;51.992;5.924;2023-01-13T04:38:44;19.50;;;2.30;;
69401;SDS011;56589;51.992;5.924;2023-01-13T04:41:10;16.70;;;2.53;;
69401;SDS011;56589;51.992;5.924;2023-01-13T04:43:36;19.75;;;2.47;;
69401;SDS011;56589;51.992;5.924;2023-01-13T04:46:02;17.98;;;3.47;;
69401;SDS011;56589;51.992;5.924;2023-01-13T04:48:28;16.17;;;1.77;;
69401;SDS011;56589;51.992;5.924;2023-01-13T04:50:53;16.35;;;2.38;;
69401;SDS011;56589;51.992;5.924;2023-01-13T04:53:22;14.35;;;1.88;;
69401;SDS011;56589;51.992;5.924;2023-01-13T04:55:47;8.43;;;1.55;;
69401;SDS011;56589;51.992;5.924;2023-01-13T04:58:13;12.30;;;1.63;;
69401;SDS011;56589;51.992;5.924;2023-01-13T05:00:40;18.85;;;1.48;;
69401;SDS011;56589;51.992;5.924;2023-01-13T05:03:06;11.50;;;1.60;;
69401;SDS011;56589;51.992;5.924;2023-01-13T05:05:32;8.30;;;1.40;;
69401;SDS011;56589;51.992;5.924;2023-01-13T05:07:58;6.72;;;1.48;;
69401;SDS011;56589;51.992;5.924;2023-01-13T05:10:26;8.90;;;1.70;;
69401;SDS011;56589;51.992;5.924;2023-01-13T05:12:52;11.30;;;1.75;;
69401;SDS011;56589;51.992;5.924;2023-01-13T05:15:20;6.15;;;1.88;;
69401;SDS011;56589;51.992;5.924;2023-01-13T05:17:46;9.90;;;1.25;;
69401;SDS011;56589;51.992;5.924;2023-01-13T05:20:13;12.80;;;1.63;;
69401;SDS011;56589;51.992;5.924;2023-01-13T05:22:38;9.68;;;1.30;;
69401;SDS011;56589;51.992;5.924;2023-01-13T05:25:04;6.80;;;1.50;;
69401;SDS011;56589;51.992;5.924;2023-01-13T05:27:36;16.83;;;2.20;;
69401;SDS011;56589;51.992;5.924;2023-01-13T05:30:02;10.55;;;1.17;;
69401;SDS011;56589;51.992;5.924;2023-01-13T05:32:30;10.00;;;1.33;;
69401;SDS011;56589;51.992;5.924;2023-01-13T05:34:56;10.82;;;1.60;;
69401;SDS011;56589;51.992;5.924;2023-01-13T05:37:22;10.65;;;1.48;;
69401;SDS011;56589;51.992;5.924;2023-01-13T05:39:49;7.38;;;1.58;;
69401;SDS011;56589;51.992;5.924;2023-01-13T05:42:14;9.45;;;1.73;;
69401;SDS011;56589;51.992;5.924;2023-01-13T05:44:43;8.05;;;1.52;;
69401;SDS011;56589;51.992;5.924;2023-01-13T05:47:09;10.30;;;1.58;;
69401;SDS011;56589;51.992;5.924;2023-01-13T05:49:35;12.57;;;1.38;;
69401;SDS011;56589;51.992;5.924;2023-01-13T05:52:00;11.93;;;1.83;;
69401;SDS011;56589;51.992;5.924;2023-01-13T05:54:26;15.65;;;1.60;;
69401;SDS011;56589;51.992;5.924;2023-01-13T05:56:52;13.77;;;3.58;;
69401;SDS011;56589;51.992;5.924;2023-01-13T05:59:18;11.93;;;1.30;;
69401;SDS011;56589;51.992;5.924;2023-01-13T06:01:46;11.63;;;1.67;;
69401;SDS011;56589;51.992;5.924;2023-01-13T06:04:12;9.45;;;1.65;;
69401;SDS011;56589;51.992;5.924;2023-01-13T06:06:37;12.23;;;1.83;;
69401;SDS011;56589;51.992;5.924;2023-01-13T06:09:03;10.82;;;2.22;;
69401;SDS011;56589;51.992;5.924;2023-01-13T06:11:30;11.68;;;1.98;;
69401;SDS011;56589;51.992;5.924;2023-01-13T06:13:56;11.20;;;2.13;;
69401;SDS011;56589;51.992;5.924;2023-01-13T06:16:22;13.65;;;1.92;;
69401;SDS011;56589;51.992;5.924;2023-01-13T06:18:50;8.90;;;2.10;;
69401;SDS011;56589;51.992;5.924;2023-01-13T06:21:16;12.70;;;1.50;;
69401;SDS011;56589;51.992;5.924;2023-01-13T06:23:42;11.65;;;2.20;;
69401;SDS011;56589;51.992;5.924;2023-01-13T06:26:08;14.10;;;2.50;;
69401;SDS011;56589;51.992;5.924;2023-01-13T06:28:41;12.57;;;1.85;;
69401;SDS011;56589;51.992;5.924;2023-01-13T06:31:07;11.05;;;2.17;;
69401;SDS011;56589;51.992;5.924;2023-01-13T06:33:35;12.90;;;2.30;;
69401;SDS011;56589;51.992;5.924;2023-01-13T06:36:09;18.05;;;2.88;;
69401;SDS011;56589;51.992;5.924;2023-01-13T06:38:41;7.78;;;2.20;;
69401;SDS011;56589;51.992;5.924;2023-01-13T06:41:12;11.27;;;1.67;;
69401;SDS011;56589;51.992;5.924;2023-01-13T06:43:40;11.95;;;2.10;;
69401;SDS011;56589;51.992;5.924;2023-01-13T06:46:06;11.27;;;1.95;;
69401;SDS011;56589;51.992;5.924;2023-01-13T06:48:32;13.02;;;1.92;;
69401;SDS011;56589;51.992;5.924;2023-01-13T06:50:59;14.13;;;2.10;;
69401;SDS011;56589;51.992;5.924;2023-01-13T06:53:27;12.68;;;2.28;;
69401;SDS011;56589;51.992;5.924;2023-01-13T06:55:53;9.45;;;1.90;;
69401;SDS011;56589;51.992;5.924;2023-01-13T06:58:19;16.88;;;2.53;;
69401;SDS011;56589;51.992;5.924;2023-01-13T07:00:45;11.80;;;1.70;;
69401;SDS011;56589;51.992;5.924;2023-01-13T07:03:11;11.90;;;2.35;;
69401;SDS011;56589;51.992;5.924;2023-01-13T07:05:39;10.00;;;1.83;;
69401;SDS011;56589;51.992;5.924;2023-01-13T07:08:07;13.88;;;2.05;;
69401;SDS011;56589;51.992;5.924;2023-01-13T07:10:37;12.13;;;2.35;;
69401;SDS011;56589;51.992;5.924;2023-01-13T07:13:03;20.85;;;2.92;;
69401;SDS011;56589;51.992;5.924;2023-01-13T07:15:32;16.67;;;3.03;;
69401;SDS011;56589;51.992;5.924;2023-01-13T07:17:59;11.07;;;2.08;;
69401;SDS011;56589;51.992;5.924;2023-01-13T07:20:25;17.02;;;3.03;;
69401;SDS011;56589;51.992;5.924;2023-01-13T07:22:52;16.88;;;2.38;;
69401;SDS011;56589;51.992;5.924;2023-01-13T07:25:20;20.65;;;2.97;;
69401;SDS011;56589;51.992;5.924;2023-01-13T07:27:48;19.27;;;2.70;;
69401;SDS011;56589;51.992;5.924;2023-01-13T07:30:14;19.42;;;3.65;;
69401;SDS011;56589;51.992;5.924;2023-01-13T07:32:41;16.65;;;2.03;;
69401;SDS011;56589;51.992;5.924;2023-01-13T07:35:07;12.25;;;2.30;;
69401;SDS011;56589;51.992;5.924;2023-01-13T07:37:34;15.68;;;2.10;;
69401;SDS011;56589;51.992;5.924;2023-01-13T07:40:02;14.75;;;2.25;;
69401;SDS011;56589;51.992;5.924;2023-01-13T07:42:28;12.48;;;2.00;;
69401;SDS011;56589;51.992;5.924;2023-01-13T07:44:57;13.98;;;2.20;;
69401;SDS011;56589;51.992;5.924;2023-01-13T07:47:23;15.45;;;2.33;;
69401;SDS011;56589;51.992;5.924;2023-01-13T07:49:49;18.27;;;2.50;;
69401;SDS011;56589;51.992;5.924;2023-01-13T07:52:15;18.08;;;2.88;;
69401;SDS011;56589;51.992;5.924;2023-01-13T07:54:40;20.48;;;3.00;;
69401;SDS011;56589;51.992;5.924;2023-01-13T07:57:06;13.80;;;2.17;;
69401;SDS011;56589;51.992;5.924;2023-01-13T07:59:32;16.42;;;2.35;;
69401;SDS011;56589;51.992;5.924;2023-01-13T08:02:01;17.95;;;2.85;;
69401;SDS011;56589;51.992;5.924;2023-01-13T08:04:27;14.63;;;2.50;;
69401;SDS011;56589;51.992;5.924;2023-01-13T08:06:53;15.25;;;2.47;;
69401;SDS011;56589;51.992;5.924;2023-01-13T08:09:18;15.52;;;2.03;;
69401;SDS011;56589;51.992;5.924;2023-01-13T08:11:44;19.38;;;2.97;;
69401;SDS011;56589;51.992;5.924;2023-01-13T08:14:10;19.30;;;2.92;;
69401;SDS011;56589;51.992;5.924;2023-01-13T08:16:36;16.77;;;2.95;;
69401;SDS011;56589;51.992;5.924;2023-01-13T08:19:04;24.98;;;2.53;;
69401;SDS011;56589;51.992;5.924;2023-01-13T08:21:30;14.45;;;3.58;;
69401;SDS011;56589;51.992;5.924;2023-01-13T08:23:56;15.65;;;2.90;;
69401;SDS011;56589;51.992;5.924;2023-01-13T08:26:22;17.27;;;3.10;;
69401;SDS011;56589;51.992;5.924;2023-01-13T08:28:47;24.60;;;3.05;;
69401;SDS011;56589;51.992;5.924;2023-01-13T08:31:14;17.15;;;2.05;;
69401;SDS011;56589;51.992;5.924;2023-01-13T08:33:40;17.60;;;2.85;;
69401;SDS011;56589;51.992;5.924;2023-01-13T08:36:10;17.85;;;2.38;;
69401;SDS011;56589;51.992;5.924;2023-01-13T08:38:37;18.95;;;2.78;;
69401;SDS011;56589;51.992;5.924;2023-01-13T08:41:07;18.25;;;2.30;;
69401;SDS011;56589;51.992;5.924;2023-01-13T08:43:34;16.90;;;3.65;;
69401;SDS011;56589;51.992;5.924;2023-01-13T08:46:00;18.30;;;3.17;;
69401;SDS011;56589;51.992;5.924;2023-01-13T08:48:27;16.75;;;3.08;;
69401;SDS011;56589;51.992;5.924;2023-01-13T08:50:53;21.77;;;3.60;;
69401;SDS011;56589;51.992;5.924;2023-01-13T08:53:28;21.27;;;3.40;;
69401;SDS011;56589;51.992;5.924;2023-01-13T08:55:54;24.35;;;3.00;;
69401;SDS011;56589;51.992;5.924;2023-01-13T08:58:20;18.45;;;3.00;;
69401;SDS011;56589;51.992;5.924;2023-01-13T09:00:46;16.80;;;3.30;;
69401;SDS011;56589;51.992;5.924;2023-01-13T09:03:11;19.50;;;3.22;;
69401;SDS011;56589;51.992;5.924;2023-01-13T09:05:37;19.02;;;3.22;;
69401;SDS011;56589;51.992;5.924;2023-01-13T09:08:04;21.35;;;2.67;;
69401;SDS011;56589;51.992;5.924;2023-01-13T09:10:32;19.20;;;3.22;;
69401;SDS011;56589;51.992;5.924;2023-01-13T09:12:58;24.67;;;3.67;;
69401;SDS011;56589;51.992;5.924;2023-01-13T09:15:24;20.45;;;3.47;;
69401;SDS011;56589;51.992;5.924;2023-01-13T09:17:50;17.05;;;2.53;;
69401;SDS011;56589;51.992;5.924;2023-01-13T09:20:16;17.73;;;2.30;;
69401;SDS011;56589;51.992;5.924;2023-01-13T09:22:42;19.65;;;2.72;;
69401;SDS011;56589;51.992;5.924;2023-01-13T09:25:08;22.90;;;2.58;;
69401;SDS011;56589;51.992;5.924;2023-01-13T09:27:36;19.02;;;3.17;;
69401;SDS011;56589;51.992;5.924;2023-01-13T09:30:03;17.00;;;3.08;;
69401;SDS011;56589;51.992;5.924;2023-01-13T09:32:31;17.65;;;2.65;;
69401;SDS011;56589;51.992;5.924;2023-01-13T09:34:57;17.38;;;2.80;;
69401;SDS011;56589;51.992;5.924;2023-01-13T09:37:23;19.45;;;2.70;;
69401;SDS011;56589;51.992;5.924;2023-01-13T09:39:49;23.15;;;3.38;;
69401;SDS011;56589;51.992;5.924;2023-01-13T09:42:17;22.17;;;3.15;;
69401;SDS011;56589;51.992;5.924;2023-01-13T09:44:55;26.05;;;3.88;;
69401;SDS011;56589;51.992;5.924;2023-01-13T09:47:29;16.83;;;2.97;;
69401;SDS011;56589;51.992;5.924;2023-01-13T09:50:02;20.80;;;3.08;;
69401;SDS011;56589;51.992;5.924;2023-01-13T09:52:43;30.05;;;3.45;;
69401;SDS011;56589;51.992;5.924;2023-01-13T09:55:10;16.98;;;3.42;;
69401;SDS011;56589;51.992;5.924;2023-01-13T09:57:43;23.00;;;3.92;;
69401;SDS011;56589;51.992;5.924;2023-01-13T10:00:12;20.23;;;3.65;;
69401;SDS011;56589;51.992;5.924;2023-01-13T10:05:46;12.45;;;2.85;;
69401;SDS011;56589;51.992;5.924;2023-01-13T10:08:23;24.77;;;3.28;;
69401;SDS011;56589;51.992;5.924;2023-01-13T10:10:53;14.70;;;3.33;;
69401;SDS011;56589;51.992;5.924;2023-01-13T10:13:24;23.20;;;3.35;;
69401;SDS011;56589;51.992;5.924;2023-01-13T10:15:58;18.58;;;2.72;;
69401;SDS011;56589;51.992;5.924;2023-01-13T10:18:43;21.50;;;3.47;;
69401;SDS011;56589;51.992;5.924;2023-01-13T10:21:30;19.95;;;2.63;;
69401;SDS011;56589;51.992;5.924;2023-01-13T10:24:39;15.07;;;2.75;;
69401;SDS011;56589;51.992;5.924;2023-01-13T10:27:28;21.70;;;3.13;;
69401;SDS011;56589;51.992;5.924;2023-01-13T10:29:58;18.38;;;3.40;;
69401;SDS011;56589;51.992;5.924;2023-01-13T10:32:36;27.23;;;4.93;;
69401;SDS011;56589;51.992;5.924;2023-01-13T10:35:05;22.23;;;3.40;;
69401;SDS011;56589;51.992;5.924;2023-01-13T10:37:32;20.75;;;3.70;;
69401;SDS011;56589;51.992;5.924;2023-01-13T10:39:59;19.90;;;3.50;;
69401;SDS011;56589;51.992;5.924;2023-01-13T10:42:26;16.63;;;3.53;;
69401;SDS011;56589;51.992;5.924;2023-01-13T10:44:53;15.45;;;2.95;;
69401;SDS011;56589;51.992;5.924;2023-01-13T10:47:23;17.83;;;3.65;;
69401;SDS011;56589;51.992;5.924;2023-01-13T10:50:02;22.15;;;3.03;;
69401;SDS011;56589;51.992;5.924;2023-01-13T10:52:56;19.20;;;2.55;;
69401;SDS011;56589;51.992;5.924;2023-01-13T10:55:26;17.25;;;3.00;;
69401;SDS011;56589;51.992;5.924;2023-01-13T10:57:56;22.10;;;3.55;;
69401;SDS011;56589;51.992;5.924;2023-01-13T11:00:35;21.90;;;2.70;;
69401;SDS011;56589;51.992;5.924;2023-01-13T11:03:16;19.65;;;3.22;;
69401;SDS011;56589;51.992;5.924;2023-01-13T11:05:52;15.70;;;2.70;;
69401;SDS011;56589;51.992;5.924;2023-01-13T11:08:21;20.13;;;3.60;;
69401;SDS011;56589;51.992;5.924;2023-01-13T11:10:51;19.98;;;3.28;;
69401;SDS011;56589;51.992;5.924;2023-01-13T11:13:21;15.80;;;3.60;;
69401;SDS011;56589;51.992;5.924;2023-01-13T11:15:57;24.27;;;3.17;;
69401;SDS011;56589;51.992;5.924;2023-01-13T11:18:34;19.45;;;2.90;;
69401;SDS011;56589;51.992;5.924;2023-01-13T11:21:16;21.33;;;2.90;;
69401;SDS011;56589;51.992;5.924;2023-01-13T11:23:52;20.98;;;3.88;;
69401;SDS011;56589;51.992;5.924;2023-01-13T11:26:35;24.23;;;3.47;;
69401;SDS011;56589;51.992;5.924;2023-01-13T11:29:13;20.42;;;3.05;;
69401;SDS011;56589;51.992;5.924;2023-01-13T11:31:53;22.73;;;3.13;;
69401;SDS011;56589;51.992;5.924;2023-01-13T11:34:29;18.90;;;2.60;;
69401;SDS011;56589;51.992;5.924;2023-01-13T11:37:04;15.43;;;3.45;;
69401;SDS011;56589;51.992;5.924;2023-01-13T11:39:42;14.32;;;2.92;;
69401;SDS011;56589;51.992;5.924;2023-01-13T11:42:19;28.00;;;3.55;;
69401;SDS011;56589;51.992;5.924;2023-01-13T11:44:57;20.77;;;3.15;;
69401;SDS011;56589;51.992;5.924;2023-01-13T11:47:36;18.42;;;4.28;;
69401;SDS011;56589;51.992;5.924;2023-01-13T11:50:05;21.13;;;3.83;;
69401;SDS011;56589;51.992;5.924;2023-01-13T11:52:51;20.13;;;2.47;;
69401;SDS011;56589;51.992;5.924;2023-01-13T11:55:48;20.10;;;2.53;;
69401;SDS011;56589;51.992;5.924;2023-01-13T12:01:53;20.63;;;3.38;;
69401;SDS011;56589;51.992;5.924;2023-01-13T12:04:39;18.88;;;2.92;;
69401;SDS011;56589;51.992;5.924;2023-01-13T12:07:19;13.38;;;2.50;;
69401;SDS011;56589;51.992;5.924;2023-01-13T12:10:02;19.05;;;2.95;;
69401;SDS011;56589;51.992;5.924;2023-01-13T12:12:41;19.60;;;3.40;;
69401;SDS011;56589;51.992;5.924;2023-01-13T12:18:33;15.45;;;2.60;;
69401;SDS011;56589;51.992;5.924;2023-01-13T12:21:25;13.73;;;2.60;;
69401;SDS011;56589;51.992;5.924;2023-01-13T12:23:58;19.02;;;4.30;;
69401;SDS011;56589;51.992;5.924;2023-01-13T12:26:40;24.30;;;3.80;;
69401;SDS011;56589;51.992;5.924;2023-01-13T12:29:15;16.88;;;2.70;;
69401;SDS011;56589;51.992;5.924;2023-01-13T12:31:44;19.20;;;2.88;;
69401;SDS011;56589;51.992;5.924;2023-01-13T12:34:22;15.07;;;2.25;;
69401;SDS011;56589;51.992;5.924;2023-01-13T12:37:04;15.45;;;2.67;;
69401;SDS011;56589;51.992;5.924;2023-01-13T12:39:47;14.10;;;1.85;;
69401;SDS011;56589;51.992;5.924;2023-01-13T12:42:31;20.70;;;3.35;;
69401;SDS011;56589;51.992;5.924;2023-01-13T12:45:21;27.83;;;3.00;;
69401;SDS011;56589;51.992;5.924;2023-01-13T12:47:51;17.45;;;3.38;;
69401;SDS011;56589;51.992;5.924;2023-01-13T12:56:19;19.40;;;2.60;;
69401;SDS011;56589;51.992;5.924;2023-01-13T12:59:02;17.67;;;2.88;;
69401;SDS011;56589;51.992;5.924;2023-01-13T13:08:22;20.17;;;2.47;;
69401;SDS011;56589;51.992;5.924;2023-01-13T13:14:04;18.65;;;2.40;;
69401;SDS011;56589;51.992;5.924;2023-01-13T13:22:15;23.27;;;2.13;;
69401;SDS011;56589;51.992;5.924;2023-01-13T13:25:13;22.50;;;3.53;;
69401;SDS011;56589;51.992;5.924;2023-01-13T13:27:48;14.80;;;2.42;;
69401;SDS011;56589;51.992;5.924;2023-01-13T13:30:32;19.27;;;2.35;;
69401;SDS011;56589;51.992;5.924;2023-01-13T13:33:03;14.50;;;2.08;;
69401;SDS011;56589;51.992;5.924;2023-01-13T13:35:59;20.20;;;2.33;;
69401;SDS011;56589;51.992;5.924;2023-01-13T13:38:54;14.52;;;1.95;;
69401;SDS011;56589;51.992;5.924;2023-01-13T13:41:41;24.52;;;3.63;;
69401;SDS011;56589;51.992;5.924;2023-01-13T13:44:12;18.83;;;2.55;;
69401;SDS011;56589;51.992;5.924;2023-01-13T13:46:45;21.33;;;3.33;;
69401;SDS011;56589;51.992;5.924;2023-01-13T13:49:14;17.67;;;3.55;;
69401;SDS011;56589;51.992;5.924;2023-01-13T13:51:43;13.07;;;2.40;;
69401;SDS011;56589;51.992;5.924;2023-01-13T13:54:20;18.30;;;2.35;;
69401;SDS011;56589;51.992;5.924;2023-01-13T13:56:47;11.02;;;2.00;;
69401;SDS011;56589;51.992;5.924;2023-01-13T13:59:16;25.75;;;3.72;;
69401;SDS011;56589;51.992;5.924;2023-01-13T14:01:50;18.75;;;2.65;;
69401;SDS011;56589;51.992;5.924;2023-01-13T14:06:48;16.52;;;2.67;;
69401;SDS011;56589;51.992;5.924;2023-01-13T14:09:17;10.70;;;1.90;;
69401;SDS011;56589;51.992;5.924;2023-01-13T14:11:52;17.67;;;2.35;;
69401;SDS011;56589;51.992;5.924;2023-01-13T14:14:24;15.18;;;2.10;;
69401;SDS011;56589;51.992;5.924;2023-01-13T14:16:53;16.33;;;3.08;;
69401;SDS011;56589;51.992;5.924;2023-01-13T14:19:21;16.38;;;2.97;;
69401;SDS011;56589;51.992;5.924;2023-01-13T14:21:54;10.68;;;2.30;;
69401;SDS011;56589;51.992;5.924;2023-01-13T14:24:21;14.38;;;2.63;;
69401;SDS011;56589;51.992;5.924;2023-01-13T14:26:47;13.45;;;2.25;;
69401;SDS011;56589;51.992;5.924;2023-01-13T14:29:14;19.17;;;2.42;;
69401;SDS011;56589;51.992;5.924;2023-01-13T14:31:45;13.45;;;2.03;;
69401;SDS011;56589;51.992;5.924;2023-01-13T14:34:16;16.45;;;2.65;;
69401;SDS011;56589;51.992;5.924;2023-01-13T14:36:46;16.33;;;2.37;;
69401;SDS011;56589;51.992;5.924;2023-01-13T14:39:22;14.18;;;2.38;;
69401;SDS011;56589;51.992;5.924;2023-01-13T14:41:56;13.77;;;2.10;;
69401;SDS011;56589;51.992;5.924;2023-01-13T14:44:22;20.73;;;2.60;;
69401;SDS011;56589;51.992;5.924;2023-01-13T14:46:53;18.00;;;3.05;;
69401;SDS011;56589;51.992;5.924;2023-01-13T14:49:25;12.27;;;2.55;;
69401;SDS011;56589;51.992;5.924;2023-01-13T14:52:06;13.40;;;1.98;;
69401;SDS011;56589;51.992;5.924;2023-01-13T14:54:42;12.80;;;2.47;;
69401;SDS011;56589;51.992;5.924;2023-01-13T14:57:13;14.35;;;2.67;;
69401;SDS011;56589;51.992;5.924;2023-01-13T14:59:53;16.08;;;2.42;;
69401;SDS011;56589;51.992;5.924;2023-01-13T15:08:01;16.75;;;2.88;;
69401;SDS011;56589;51.992;5.924;2023-01-13T15:10:44;14.68;;;2.22;;
69401;SDS011;56589;51.992;5.924;2023-01-13T15:13:22;18.10;;;2.42;;
69401;SDS011;56589;51.992;5.924;2023-01-13T15:15:54;14.60;;;2.45;;
69401;SDS011;56589;51.992;5.924;2023-01-13T15:18:23;15.82;;;2.85;;
69401;SDS011;56589;51.992;5.924;2023-01-13T15:20:52;10.57;;;2.35;;
69401;SDS011;56589;51.992;5.924;2023-01-13T15:23:18;13.95;;;2.30;;
69401;SDS011;56589;51.992;5.924;2023-01-13T15:25:45;21.02;;;3.13;;
69401;SDS011;56589;51.992;5.924;2023-01-13T15:28:14;13.43;;;2.20;;
69401;SDS011;56589;51.992;5.924;2023-01-13T15:30:43;18.63;;;2.30;;
69401;SDS011;56589;51.992;5.924;2023-01-13T15:33:10;13.00;;;2.60;;
69401;SDS011;56589;51.992;5.924;2023-01-13T15:35:38;14.38;;;2.38;;
69401;SDS011;56589;51.992;5.924;2023-01-13T15:38:11;18.33;;;2.15;;